Time;durP1;ratioP1;P1;durP2;ratioP2;P2;SDS_P1;SDS_P2;PMS_P1;PMS_P2;Temp;Humidity;BMP_temperature;BMP_pressure;BME280_temperature;BME280_humidity;BME280_pressure;Samples;Min_cycle;Max_cycle;Signal;HPM_P1;HPM_P2
2021/08/24 03:46:32;;;;;;;3.53;1.85;;;;;;;11.67;100.00;101664.00;2615076;36;20058;-58
2021/08/24 03:48:59;;;;;;;4.70;1.98;;;;;;;11.62;100.00;101666.38;2614948;36;20057;-57
2021/08/24 03:51:27;;;;;;;5.45;2.15;;;;;;;11.65;100.00;101668.19;2614848;36;20061;-57
2021/08/24 03:53:54;;;;;;;4.68;2.03;;;;;;;11.66;100.00;101669.94;2615176;36;20038;-53
2021/08/24 03:56:21;;;;;;;3.63;1.92;;;;;;;11.41;100.00;101676.69;2614842;31;20039;-56
2021/08/24 03:58:48;;;;;;;4.47;1.75;;;;;;;11.59;100.00;101678.22;2614502;36;20069;-58
2021/08/24 04:01:18;;;;;;;4.90;2.00;;;;;;;11.48;100.00;101680.38;2615048;36;20484;-57
2021/08/24 04:03:45;;;;;;;4.32;2.47;;;;;;;11.44;100.00;101678.50;2614983;36;20023;-56
2021/08/24 04:06:13;;;;;;;3.53;1.65;;;;;;;11.38;100.00;101678.28;2614700;31;20563;-57
2021/08/24 04:08:40;;;;;;;3.92;1.83;;;;;;;11.56;100.00;101688.38;2614698;36;20034;-59
2021/08/24 04:11:08;;;;;;;3.45;1.98;;;;;;;11.40;100.00;101694.59;2614902;36;20061;-58
2021/08/24 04:13:36;;;;;;;5.10;1.80;;;;;;;11.31;100.00;101690.00;2614843;36;20064;-56
2021/08/24 04:16:05;;;;;;;3.75;2.00;;;;;;;11.62;100.00;101693.72;2615360;36;20458;-56
2021/08/24 04:18:32;;;;;;;4.10;1.83;;;;;;;11.32;100.00;101686.59;2615949;31;20486;-55
2021/08/24 04:21:00;;;;;;;3.42;1.55;;;;;;;11.48;100.00;101690.66;2614842;36;20027;-56
2021/08/24 04:23:28;;;;;;;5.40;2.05;;;;;;;11.58;100.00;101692.72;2615442;31;20038;-58
2021/08/24 04:25:55;;;;;;;4.82;1.83;;;;;;;11.61;100.00;101686.84;2614822;36;20038;-60
2021/08/24 04:28:22;;;;;;;3.53;2.00;;;;;;;11.41;100.00;101691.22;2615139;31;20053;-61
2021/08/24 04:30:49;;;;;;;5.32;1.70;;;;;;;11.61;100.00;101694.56;2615317;36;20481;-60
2021/08/24 04:33:21;;;;;;;4.65;1.70;;;;;;;11.57;100.00;101705.50;2614948;36;20151;-61
2021/08/24 04:35:53;;;;;;;2.53;2.03;;;;;;;11.84;100.00;101693.75;2615276;36;20404;-61
2021/08/24 04:38:21;;;;;;;5.35;1.90;;;;;;;11.60;100.00;101693.69;2614606;36;20049;-61
2021/08/24 04:40:49;;;;;;;4.20;2.03;;;;;;;11.37;100.00;101700.50;2614742;36;20027;-60
2021/08/24 04:43:17;;;;;;;2.97;1.77;;;;;;;11.82;100.00;101699.59;2614981;31;20023;-56
2021/08/24 04:45:44;;;;;;;7.03;2.33;;;;;;;11.69;100.00;101708.53;2614600;36;20581;-58
2021/08/24 04:48:12;;;;;;;4.82;1.90;;;;;;;11.47;100.00;101710.28;2614804;31;20570;-58
2021/08/24 04:50:40;;;;;;;4.28;1.80;;;;;;;11.55;100.00;101705.44;2614829;36;20034;-59
2021/08/24 04:53:08;;;;;;;6.18;1.60;;;;;;;11.81;100.00;101715.81;2613789;36;20574;-59
2021/08/24 04:55:35;;;;;;;6.32;1.73;;;;;;;11.68;100.00;101722.19;2615359;31;20050;-56
2021/08/24 04:58:03;;;;;;;3.45;1.58;;;;;;;11.86;100.00;101720.31;2615228;36;20443;-58
2021/08/24 05:00:32;;;;;;;3.72;1.58;;;;;;;11.81;100.00;101719.25;2615648;31;20548;-59
2021/08/24 05:02:59;;;;;;;4.63;2.22;;;;;;;11.89;100.00;101720.44;2614561;36;20026;-58
2021/08/24 05:05:27;;;;;;;3.20;1.60;;;;;;;11.86;100.00;101720.31;2615439;31;20030;-57
2021/08/24 05:07:54;;;;;;;4.90;1.90;;;;;;;11.98;100.00;101717.34;2615693;31;20542;-59
2021/08/24 05:10:22;;;;;;;5.35;1.67;;;;;;;12.05;100.00;101726.13;2615459;36;20071;-57
2021/08/24 05:12:49;;;;;;;2.92;1.30;;;;;;;12.08;100.00;101721.13;2616040;36;20037;-54
2021/08/24 05:15:16;;;;;;;2.53;1.42;;;;;;;12.05;100.00;101721.88;2616401;31;20035;-59
2021/08/24 05:17:48;;;;;;;2.55;1.48;;;;;;;12.21;100.00;101725.88;2615452;36;20026;-60
2021/08/24 05:20:18;;;;;;;4.30;1.58;;;;;;;12.36;100.00;101733.25;2615866;31;20058;-59
2021/08/24 05:22:46;;;;;;;5.10;1.70;;;;;;;12.53;100.00;101736.41;2615216;36;20037;-58
2021/08/24 05:25:17;;;;;;;6.88;2.65;;;;;;;12.30;100.00;101730.47;2615586;36;20103;-61
2021/08/24 05:27:44;;;;;;;2.58;2.10;;;;;;;12.31;100.00;101733.09;2615872;36;20034;-60
2021/08/24 05:30:17;;;;;;;3.35;1.52;;;;;;;12.19;100.00;101735.22;2615714;36;20034;-59
2021/08/24 05:32:44;;;;;;;4.88;1.42;;;;;;;12.78;100.00;101733.84;2615956;36;20042;-58
2021/08/24 05:35:12;;;;;;;3.53;1.52;;;;;;;12.52;100.00;101745.78;2616283;31;20056;-59
2021/08/24 05:37:40;;;;;;;2.15;1.20;;;;;;;12.83;100.00;101737.44;2616834;31;20585;-57
2021/08/24 05:40:08;;;;;;;2.28;1.35;;;;;;;12.73;100.00;101727.66;2615403;36;20087;-58
2021/08/24 05:42:35;;;;;;;2.42;1.48;;;;;;;12.93;100.00;101738.59;2616954;31;20038;-60
2021/08/24 05:45:04;;;;;;;3.35;1.23;;;;;;;13.25;100.00;101740.53;2615457;36;20034;-58
2021/08/24 05:47:33;;;;;;;3.30;1.48;;;;;;;13.30;100.00;101748.41;2615319;36;20026;-58
2021/08/24 05:50:01;;;;;;;4.07;1.35;;;;;;;13.38;100.00;101749.53;2615313;36;20026;-58
2021/08/24 05:52:29;;;;;;;1.92;0.98;;;;;;;13.19;100.00;101750.63;2615268;36;20038;-61
2021/08/24 05:54:58;;;;;;;5.10;1.83;;;;;;;13.58;100.00;101754.41;2614900;36;20035;-60
2021/08/24 05:57:26;;;;;;;3.47;1.42;;;;;;;13.48;100.00;101764.41;2615362;36;20049;-59
2021/08/24 06:00:00;;;;;;;4.90;1.73;;;;;;;13.84;100.00;101763.78;2615603;36;20046;-60
2021/08/24 06:02:29;;;;;;;2.00;1.10;;;;;;;13.97;100.00;101759.88;2614749;36;20042;-60
2021/08/24 06:04:58;;;;;;;4.38;1.33;;;;;;;13.92;100.00;101758.88;2614855;36;20037;-58
2021/08/24 06:07:25;;;;;;;2.45;1.35;;;;;;;14.22;100.00;101766.59;2615104;31;22226;-56
2021/08/24 06:09:52;;;;;;;5.13;1.92;;;;;;;13.93;100.00;101766.63;2615660;31;20030;-59
2021/08/24 06:12:19;;;;;;;3.92;1.48;;;;;;;14.10;100.00;101766.28;2615209;36;20034;-57
2021/08/24 06:14:47;;;;;;;3.03;1.13;;;;;;;14.27;100.00;101765.88;2615181;36;20034;-59
2021/08/24 06:17:14;;;;;;;4.53;1.60;;;;;;;14.30;100.00;101774.53;2616695;31;20081;-57
2021/08/24 06:19:41;;;;;;;2.33;1.45;;;;;;;14.69;100.00;101774.78;2614706;36;20047;-62
2021/08/24 06:22:08;;;;;;;2.03;1.20;;;;;;;14.79;100.00;101771.63;2617442;31;20023;-61
2021/08/24 06:24:37;;;;;;;4.95;1.60;;;;;;;14.91;100.00;101773.63;2615206;36;20660;-62
2021/08/24 06:27:06;;;;;;;3.10;1.45;;;;;;;15.11;100.00;101771.53;2616424;31;20586;-60
2021/08/24 06:29:33;;;;;;;3.45;1.48;;;;;;;15.14;100.00;101769.03;2615776;31;20030;-62
2021/08/24 06:32:05;;;;;;;4.50;1.58;;;;;;;15.34;100.00;101770.38;2615741;36;20450;-62
2021/08/24 06:34:35;;;;;;;3.67;1.40;;;;;;;15.36;100.00;101770.44;2615087;36;20037;-61
2021/08/24 06:37:02;;;;;;;1.52;1.10;;;;;;;15.74;99.46;101771.31;2616232;31;20446;-61
2021/08/24 06:39:30;;;;;;;3.75;1.27;;;;;;;15.86;100.00;101773.31;2615341;36;20424;-59
2021/08/24 06:41:57;;;;;;;2.75;1.10;;;;;;;15.96;99.19;101772.66;2615840;31;20034;-59
2021/08/24 06:44:24;;;;;;;3.22;1.20;;;;;;;16.14;99.30;101775.63;2615387;31;20035;-59
2021/08/24 06:46:51;;;;;;;8.43;2.40;;;;;;;16.13;96.04;101778.16;2615541;31;20053;-60
2021/08/24 06:49:19;;;;;;;4.20;1.80;;;;;;;16.46;95.88;101778.84;2615542;31;20034;-57
2021/08/24 06:51:46;;;;;;;3.70;1.33;;;;;;;16.70;94.30;101782.72;2615119;36;20035;-58
2021/08/24 06:54:16;;;;;;;4.40;1.33;;;;;;;17.17;91.40;101790.44;2614941;36;20057;-59
2021/08/24 06:56:43;;;;;;;2.08;1.10;;;;;;;17.83;87.54;101799.22;2615370;31;20953;-60
2021/08/24 06:59:10;;;;;;;4.20;1.58;;;;;;;18.52;82.58;101796.63;2614863;31;20574;-61
2021/08/24 07:01:37;;;;;;;2.28;1.50;;;;;;;18.81;79.99;101796.97;2615212;36;20030;-59
2021/08/24 07:04:05;;;;;;;4.15;1.23;;;;;;;19.71;75.82;101802.00;2615129;36;20571;-58
2021/08/24 07:06:36;;;;;;;4.78;1.55;;;;;;;19.45;75.78;101806.97;2615005;36;20037;-57
2021/08/24 07:09:04;;;;;;;3.22;1.27;;;;;;;18.90;77.86;101803.06;2614916;36;20031;-61
2021/08/24 07:11:34;;;;;;;2.80;1.23;;;;;;;18.52;81.24;101804.41;2616374;31;20795;-55
2021/08/24 07:14:04;;;;;;;2.00;1.20;;;;;;;17.81;81.82;101807.00;2615277;36;20116;-58
2021/08/24 07:16:34;;;;;;;7.97;1.60;;;;;;;17.72;86.80;101809.41;2615581;31;20033;-59
2021/08/24 07:19:06;;;;;;;3.83;1.38;;;;;;;17.38;83.92;101801.16;2615105;31;20026;-61
2021/08/24 07:21:35;;;;;;;3.38;1.50;;;;;;;17.50;85.18;101803.91;2615820;31;20058;-58
2021/08/24 07:24:04;;;;;;;2.17;1.25;;;;;;;17.49;84.40;101803.91;2615211;31;20030;-60
2021/08/24 07:26:31;;;;;;;3.00;1.15;;;;;;;17.47;85.06;101797.81;2615106;36;20042;-59
2021/08/24 07:28:58;;;;;;;4.82;1.70;;;;;;;17.51;85.09;101807.38;2614937;36;20034;-61
2021/08/24 07:31:27;;;;;;;4.40;1.60;;;;;;;17.75;82.82;101807.78;2614636;31;20049;-61
2021/08/24 07:33:55;;;;;;;6.60;1.20;;;;;;;18.35;80.66;101808.56;2613810;31;20030;-59
2021/08/24 07:36:22;;;;;;;2.28;1.20;;;;;;;18.65;80.56;101809.72;2614009;31;20046;-61
2021/08/24 07:38:50;;;;;;;3.67;1.83;;;;;;;19.17;77.61;101813.69;2614544;36;20042;-61
2021/08/24 07:41:21;;;;;;;3.83;1.50;;;;;;;18.97;77.59;101813.53;2615264;36;20491;-59
2021/08/24 07:43:48;;;;;;;2.05;1.33;;;;;;;19.05;75.42;101817.09;2614631;36;20030;-60
2021/08/24 07:46:15;;;;;;;2.28;1.35;;;;;;;19.18;74.98;101825.84;2615438;31;20034;-60
2021/08/24 07:48:42;;;;;;;6.03;1.77;;;;;;;19.02;76.40;101826.56;2614937;36;20079;-61
2021/08/24 07:51:09;;;;;;;2.75;1.40;;;;;;;18.94;76.75;101829.06;2614963;31;20038;-60
2021/08/24 07:53:36;;;;;;;4.78;1.90;;;;;;;19.15;76.51;101824.94;2615389;31;20447;-58
2021/08/24 07:56:06;;;;;;;2.97;1.33;;;;;;;18.99;75.75;101826.53;2615313;31;20030;-60
2021/08/24 07:58:33;;;;;;;3.58;1.45;;;;;;;18.70;76.50;101827.13;2614725;36;20456;-59
2021/08/24 08:01:00;;;;;;;2.85;1.30;;;;;;;18.78;77.97;101820.28;2615868;31;20038;-58
2021/08/24 08:03:27;;;;;;;2.08;1.50;;;;;;;19.07;76.67;101823.13;2615432;31;20060;-60
2021/08/24 08:05:55;;;;;;;2.38;1.70;;;;;;;18.82;75.01;101831.56;2616500;31;20054;-58
2021/08/24 08:08:22;;;;;;;5.00;1.80;;;;;;;18.74;75.36;101841.00;2615498;31;20054;-60
2021/08/24 08:10:49;;;;;;;3.35;1.95;;;;;;;18.66;75.42;101832.22;2615253;36;20026;-60
2021/08/24 08:13:16;;;;;;;2.72;1.40;;;;;;;18.69;75.78;101838.34;2614893;36;20039;-61
2021/08/24 08:15:43;;;;;;;4.82;2.03;;;;;;;18.85;77.33;101831.59;2614888;36;20061;-60
2021/08/24 08:18:10;;;;;;;3.20;1.48;;;;;;;18.95;75.98;101833.44;2615092;31;20061;-60
2021/08/24 08:20:39;;;;;;;5.85;1.70;;;;;;;18.70;75.92;101831.44;2614709;36;20022;-58
2021/08/24 08:23:07;;;;;;;4.15;2.30;;;;;;;18.80;74.60;101830.66;2615342;31;20030;-61
2021/08/24 08:25:35;;;;;;;2.53;2.03;;;;;;;18.87;76.53;101835.09;2614595;36;20053;-59
2021/08/24 08:28:03;;;;;;;4.97;2.13;;;;;;;18.70;74.70;101834.03;2615645;31;20116;-59
2021/08/24 08:30:32;;;;;;;4.30;1.95;;;;;;;18.73;76.14;101836.66;2615124;36;20486;-58
2021/08/24 08:33:00;;;;;;;3.33;1.60;;;;;;;19.00;75.56;101841.28;2614752;36;20042;-60
2021/08/24 08:35:29;;;;;;;3.58;2.00;;;;;;;18.93;74.29;101842.91;2614614;36;20042;-59
2021/08/24 08:37:56;;;;;;;4.65;1.77;;;;;;;19.11;75.39;101837.03;2615392;31;20169;-58
2021/08/24 08:40:35;;;;;;;2.90;1.45;;;;;;;19.20;72.36;101839.72;2615020;31;20562;-61
2021/08/24 08:43:42;;;;;;;3.03;2.08;;;;;;;19.40;74.50;101846.78;2578638;36;2004736;-60
2021/08/24 08:46:38;;;;;;;5.03;2.00;;;;;;;19.55;71.88;101847.78;2578771;36;2004672;-61
2021/08/24 08:49:27;;;;;;;1.65;1.40;;;;;;;22.09;63.01;101863.13;2614977;31;20562;-60
2021/08/24 08:52:17;;;;;;;4.15;1.83;;;;;;;23.62;56.63;101865.72;2578650;36;2004375;-59
2021/08/24 08:54:53;;;;;;;3.40;1.45;;;;;;;23.72;55.53;101871.75;2578657;31;2004390;-56
2021/08/24 08:57:28;;;;;;;4.18;1.75;;;;;;;23.67;56.48;101864.84;2614294;36;20061;-60
2021/08/24 09:00:15;;;;;;;2.83;1.65;;;;;;;22.16;61.64;101856.19;2614535;36;20034;-61
2021/08/24 09:03:04;;;;;;;3.38;1.60;;;;;;;21.73;62.49;101862.38;2578499;36;2004589;-61
2021/08/24 09:05:33;;;;;;;3.05;1.70;;;;;;;20.48;66.22;101863.09;2615843;36;20030;-58
2021/08/24 09:08:01;;;;;;;3.40;1.85;;;;;;;20.18;68.31;101855.09;2614568;36;20037;-60
2021/08/24 09:10:32;;;;;;;5.05;1.80;;;;;;;20.18;67.33;101855.09;2615372;31;20038;-55
2021/08/24 09:13:06;;;;;;;6.25;1.85;;;;;;;20.64;66.84;101864.00;2614736;36;20038;-57
2021/08/24 09:15:41;;;;;;;5.22;2.15;;;;;;;21.05;66.13;101863.22;2614533;36;20027;-57
2021/08/24 09:18:15;;;;;;;2.08;1.55;;;;;;;21.44;65.41;101870.19;2577522;31;2004562;-59
2021/08/24 09:20:55;;;;;;;4.15;1.90;;;;;;;21.38;65.47;101872.81;2613139;31;20048;-60
2021/08/24 09:23:23;;;;;;;2.42;1.67;;;;;;;20.94;61.60;101870.13;2614324;31;20034;-60
2021/08/24 09:25:59;;;;;;;2.88;1.50;;;;;;;20.84;60.38;101877.06;2614705;36;20450;-58
2021/08/24 09:28:29;;;;;;;1.70;1.30;;;;;;;20.84;63.09;101875.34;2613854;36;20471;-59
2021/08/24 09:31:02;;;;;;;2.83;1.40;;;;;;;20.98;63.35;101875.34;2614162;31;20038;-57
2021/08/24 09:33:31;;;;;;;4.65;1.67;;;;;;;21.22;63.90;101866.72;2615402;31;20044;-58
2021/08/24 09:35:58;;;;;;;3.10;1.60;;;;;;;20.91;62.38;101880.56;2615585;31;20450;-54
2021/08/24 09:38:31;;;;;;;4.32;1.60;;;;;;;21.09;63.90;101873.63;2614909;36;20463;-59
2021/08/24 09:41:01;;;;;;;3.88;2.10;;;;;;;21.24;64.27;101870.16;2614733;36;20035;-59
2021/08/24 09:43:37;;;;;;;3.13;2.00;;;;;;;21.17;63.63;101868.44;2615114;31;20042;-57
2021/08/24 09:46:16;;;;;;;4.53;1.90;;;;;;;20.59;64.79;101879.59;2613940;31;20054;-47
2021/08/24 09:48:53;;;;;;;3.75;1.75;;;;;;;19.79;65.00;101878.31;2578184;31;2004587;-46
2021/08/24 09:51:27;;;;;;;2.83;1.63;;;;;;;20.32;65.10;101879.47;2614025;31;20073;-50
2021/08/24 09:53:56;;;;;;;5.95;1.63;;;;;;;21.66;59.61;101880.63;2615532;31;20526;-46
2021/08/24 09:56:26;;;;;;;3.13;1.65;;;;;;;25.06;52.62;101881.44;2616798;36;20046;-48
2021/08/24 09:58:54;;;;;;;3.90;1.95;;;;;;;26.29;45.48;101896.75;2615448;36;20641;-47
2021/08/24 10:01:21;;;;;;;3.63;1.70;;;;;;;28.79;39.61;101904.47;2614756;36;20166;-46
2021/08/24 10:04:08;;;;;;;2.88;1.77;;;;;;;28.37;37.04;101902.22;2614625;36;20042;-43
2021/08/24 10:06:51;;;;;;;2.42;1.48;;;;;;;28.01;38.42;101898.84;2615900;31;20225;-46
2021/08/24 10:09:24;;;;;;;2.58;1.88;;;;;;;28.46;40.43;101901.06;2578810;31;2004695;-45
2021/08/24 10:11:51;;;;;;;3.15;1.80;;;;;;;26.25;41.99;101891.59;2614666;36;20894;-45
2021/08/24 10:14:25;;;;;;;6.13;1.70;;;;;;;24.95;45.70;101893.81;2615179;31;20034;-46
2021/08/24 10:16:57;;;;;;;3.05;1.38;;;;;;;24.59;44.96;101893.47;2615885;36;20030;-44
2021/08/24 10:19:30;;;;;;;4.95;1.90;;;;;;;23.18;49.06;101884.38;2615551;36;20037;-46
2021/08/24 10:22:05;;;;;;;5.18;2.05;;;;;;;23.34;47.52;101888.63;2616440;31;20550;-45
2021/08/24 10:24:40;;;;;;;2.92;1.77;;;;;;;23.08;51.38;101893.19;2616327;31;20030;-44
2021/08/24 10:27:21;;;;;;;2.03;1.63;;;;;;;22.36;51.55;101891.78;2615923;36;20045;-44
2021/08/24 10:29:52;;;;;;;3.90;1.95;;;;;;;22.20;52.03;101882.28;2580559;31;2004564;-45
2021/08/24 10:32:32;;;;;;;4.40;1.70;;;;;;;25.21;45.21;101888.22;2616584;31;20053;-49
2021/08/24 10:35:11;;;;;;;2.58;1.70;;;;;;;28.08;36.64;101895.13;2616328;31;20060;-47
2021/08/24 10:37:41;;;;;;;1.98;1.67;;;;;;;25.69;38.15;101899.63;2615496;36;20033;-44
2021/08/24 10:40:08;;;;;;;4.60;1.80;;;;;;;26.49;40.50;101900.78;2579826;31;2004578;-44
2021/08/24 10:42:39;;;;;;;2.08;1.45;;;;;;;27.55;37.86;101907.06;2616279;31;20053;-46
2021/08/24 10:45:22;;;;;;;4.85;2.05;;;;;;;30.26;32.46;101911.88;2615813;31;20057;-45
2021/08/24 10:47:55;;;;;;;3.25;1.92;;;;;;;31.29;30.40;101898.13;2578708;31;2004396;-45
2021/08/24 10:50:42;;;;;;;2.45;2.00;;;;;;;29.15;34.41;101888.41;2614413;31;20045;-45
2021/08/24 10:53:35;;;;;;;2.95;1.58;;;;;;;30.53;32.26;101892.31;2578474;31;2004784;-45
2021/08/24 10:56:43;;;;;;;2.05;1.75;;;;;;;31.49;30.26;101899.97;2614044;36;20569;-45
2021/08/24 10:59:36;;;;;;;2.63;1.65;;;;;;;28.72;32.71;101888.91;2541581;36;2004885;-46
2021/08/24 11:02:09;;;;;;;4.75;2.10;;;;;;;30.95;30.68;101896.84;2614225;31;20681;-50
2021/08/24 11:05:17;;;;;;;3.47;1.90;;;;;;;29.62;30.93;101899.16;2613863;31;20462;-45
2021/08/24 11:07:59;;;;;;;2.20;1.67;;;;;;;33.20;25.51;101906.19;2541902;36;2005003;-45
2021/08/24 11:10:48;;;;;;;2.83;2.00;;;;;;;30.54;28.90;101894.03;2614174;36;20034;-44
2021/08/24 11:13:27;;;;;;;3.78;1.83;;;;;;;29.76;30.20;101896.03;2578518;31;2004573;-45
2021/08/24 11:16:06;;;;;;;4.03;2.10;;;;;;;29.33;33.43;101901.00;2614284;36;20034;-45
2021/08/24 11:18:44;;;;;;;3.67;2.17;;;;;;;31.10;30.50;101893.56;2614015;36;20038;-45
2021/08/24 11:21:27;;;;;;;3.35;2.42;;;;;;;30.44;30.93;101897.97;2578674;31;2004382;-44
2021/08/24 11:24:23;;;;;;;2.78;1.90;;;;;;;29.94;30.95;101904.16;2614376;31;20026;-45
2021/08/24 11:26:50;;;;;;;3.67;2.20;;;;;;;28.08;31.99;101891.63;2578270;31;2004551;-45
2021/08/24 11:29:23;;;;;;;3.15;2.17;;;;;;;28.35;32.41;101892.63;2614087;31;20037;-45
2021/08/24 11:31:59;;;;;;;3.78;1.98;;;;;;;29.29;32.54;101888.81;2614405;36;20569;-45
2021/08/24 11:34:33;;;;;;;3.83;1.98;;;;;;;29.57;32.16;101903.75;2614437;36;20508;-45
2021/08/24 11:37:16;;;;;;;3.55;2.40;;;;;;;30.58;30.92;101897.44;2615923;31;20049;-45
2021/08/24 11:39:54;;;;;;;4.63;2.05;;;;;;;28.53;32.88;101899.13;2577845;36;2004725;-48
2021/08/24 11:42:39;;;;;;;3.50;2.35;;;;;;;30.01;32.05;101901.31;2614596;36;20556;-45
2021/08/24 11:45:23;;;;;;;3.67;2.13;;;;;;;31.26;31.41;101906.19;2614213;36;20061;-45
2021/08/24 11:48:00;;;;;;;2.92;2.10;;;;;;;31.44;26.31;101913.41;2577806;36;2005163;-45
2021/08/24 11:51:26;;;;;;;3.33;2.28;;;;;;;30.81;28.54;101900.06;2613987;36;20061;-45
2021/08/24 11:54:03;;;;;;;4.20;2.47;;;;;;;32.86;26.94;101904.28;2540606;31;2004883;-47
2021/08/24 11:56:51;;;;;;;3.38;2.28;;;;;;;32.36;26.02;101906.69;2612903;31;20030;-52
2021/08/24 11:59:33;;;;;;;4.57;2.45;;;;;;;31.43;28.42;101901.94;2577162;36;2004552;-46
2021/08/24 12:02:00;;;;;;;4.32;2.28;;;;;;;30.33;28.92;101901.03;2614260;36;20030;-45
2021/08/24 12:04:34;;;;;;;3.90;2.25;;;;;;;28.61;31.66;101892.72;2614429;31;20052;-46
2021/08/24 12:07:07;;;;;;;2.53;2.25;;;;;;;29.56;28.38;101904.66;2614194;36;20034;-44
2021/08/24 12:09:43;;;;;;;3.47;1.92;;;;;;;31.82;26.16;101894.97;2614399;31;20065;-46
2021/08/24 12:12:28;;;;;;;;;;;;;;;30.62;28.36;101899.03;2578773;31;2004568;-45
2021/08/24 12:14:59;;;;;;;4.72;2.33;;;;;;;30.58;27.15;101905.34;2614097;36;19955;-46
2021/08/24 12:17:36;;;;;;;3.83;2.60;;;;;;;32.17;25.55;101915.50;2614230;31;20038;-45
2021/08/24 12:20:28;;;;;;;2.85;2.50;;;;;;;29.90;27.03;101909.63;2614851;31;20035;-46
2021/08/24 12:22:59;;;;;;;3.65;2.05;;;;;;;30.51;28.32;101910.03;2578147;36;2004205;-46
2021/08/24 12:25:34;;;;;;;5.70;2.60;;;;;;;30.22;28.36;101904.97;2614354;36;20478;-47
2021/08/24 12:28:27;;;;;;;10.75;3.33;;;;;;;33.49;25.19;101914.50;2614060;36;20027;-45
2021/08/24 12:30:58;;;;;;;3.25;2.45;;;;;;;33.17;23.55;101900.16;2580669;31;2004395;-47
2021/08/24 12:33:31;;;;;;;6.13;2.95;;;;;;;31.10;25.98;101893.56;2614619;31;20454;-47
2021/08/24 12:36:17;;;;;;;9.63;2.65;;;;;;;30.77;26.20;101894.94;2614008;36;20061;-50
2021/08/24 12:38:50;;;;;;;5.22;2.67;;;;;;;31.72;26.53;101897.19;2578206;31;2004465;-50
2021/08/24 12:41:35;;;;;;;3.60;2.95;;;;;;;29.96;26.88;101892.69;2613943;36;20034;-49
2021/08/24 12:44:14;;;;;;;6.37;2.93;;;;;;;29.20;26.86;101889.13;2614612;31;20037;-49
2021/08/24 12:46:46;;;;;;;3.88;2.72;;;;;;;31.80;24.17;101894.16;2578065;31;2004258;-48
2021/08/24 12:51:49;;;;;;;6.22;3.60;;;;;;;31.90;24.64;101883.16;2615013;31;20026;-50
2021/08/24 12:54:20;;;;;;;5.22;3.40;;;;;;;33.09;23.31;101886.41;2614107;36;20081;-45
2021/08/24 12:56:51;;;;;;;5.05;3.20;;;;;;;33.93;23.19;101885.63;2615102;31;20033;-45
2021/08/24 12:59:36;;;;;;;3.92;3.53;;;;;;;33.10;22.47;101881.06;2613942;36;20061;-50
2021/08/24 13:02:30;;;;;;;5.18;3.40;;;;;;;31.10;25.30;101871.53;2613967;36;20042;-51
2021/08/24 13:05:12;;;;;;;3.53;3.20;;;;;;;31.85;23.97;101873.69;2577981;36;2004573;-48
2021/08/24 13:08:00;;;;;;;5.43;3.20;;;;;;;33.58;23.01;101876.84;2613889;36;20042;-48
2021/08/24 13:10:35;;;;;;;4.85;3.72;;;;;;;35.07;21.99;101880.16;2578420;31;2004633;-48
2021/08/24 13:13:25;;;;;;;5.05;3.67;;;;;;;33.97;23.05;101872.16;2614680;31;20031;-45
2021/08/24 13:15:56;;;;;;;4.20;3.58;;;;;;;32.86;24.58;101874.25;2578088;31;2004578;-47
2021/08/24 13:18:32;;;;;;;4.55;3.90;;;;;;;29.48;28.52;101861.78;2614102;31;20030;-46
2021/08/24 13:21:31;;;;;;;6.35;3.75;;;;;;;27.77;31.60;101868.75;2614698;31;20061;-44
2021/08/24 13:24:05;;;;;;;6.03;3.65;;;;;;;27.40;32.28;101867.06;2578150;31;2004377;-50
2021/08/24 13:26:52;;;;;;;5.05;3.70;;;;;;;29.39;28.77;101870.88;2614110;36;20034;-49
2021/08/24 13:29:27;;;;;;;4.15;3.08;;;;;;;30.13;27.80;101864.75;2578781;31;2004563;-48
2021/08/24 13:32:03;;;;;;;6.60;3.78;;;;;;;32.19;25.80;101865.91;2615722;31;20541;-49
2021/08/24 13:34:44;;;;;;;5.95;3.45;;;;;;;30.99;25.65;101864.06;2616979;36;20442;-47
2021/08/24 13:37:31;;;;;;;6.38;3.83;;;;;;;32.01;26.13;101874.69;2579677;36;2004557;-48
2021/08/24 13:40:04;;;;;;;5.45;4.13;;;;;;;32.59;24.88;101876.47;2615723;31;20554;-45
2021/08/24 13:42:40;;;;;;;4.47;3.55;;;;;;;34.33;25.11;101880.78;2616083;31;20034;-48
2021/08/24 13:45:15;;;;;;;6.60;4.00;;;;;;;34.86;20.89;101884.06;2614885;31;20073;-50
2021/08/24 13:47:47;;;;;;;4.45;4.05;;;;;;;32.49;24.62;101862.75;2578586;36;2004946;-50
2021/08/24 13:50:36;;;;;;;4.28;3.88;;;;;;;31.45;27.05;101862.16;2615451;31;20034;-49
2021/08/24 13:53:17;;;;;;;4.57;3.85;;;;;;;30.17;28.34;101870.78;2614609;36;20047;-47
2021/08/24 13:55:57;;;;;;;4.80;3.78;;;;;;;31.16;28.15;101866.03;2578337;36;2004603;-50
2021/08/24 13:58:35;;;;;;;4.25;3.85;;;;;;;31.38;27.23;101866.84;2614542;36;20035;-53
2021/08/24 14:01:14;;;;;;;5.65;4.35;;;;;;;31.88;25.39;101865.59;2614732;36;20038;-50
2021/08/24 14:03:47;;;;;;;4.72;3.83;;;;;;;32.60;26.51;101876.38;2578947;31;2004402;-48
2021/08/24 14:06:34;;;;;;;6.10;4.57;;;;;;;30.89;25.31;101858.28;2614576;36;20042;-47
2021/08/24 14:09:10;;;;;;;4.65;3.83;;;;;;;32.37;24.39;101871.31;2614476;36;20058;-47
2021/08/24 14:11:39;;;;;;;8.43;4.65;;;;;;;30.54;27.11;101857.00;2616822;31;20061;-46
2021/08/24 14:14:07;;;;;;;4.60;4.05;;;;;;;30.72;26.49;101858.09;2614464;36;20160;-48
2021/08/24 14:16:37;;;;;;;5.70;4.30;;;;;;;33.70;23.22;101870.88;2615335;31;20307;-47
2021/08/24 14:19:12;;;;;;;5.30;4.65;;;;;;;32.95;24.97;101856.09;2614598;36;20614;-48
2021/08/24 14:21:41;;;;;;;5.97;3.53;;;;;;;31.18;26.11;101857.06;2615299;31;20042;-49
2021/08/24 14:24:15;;;;;;;4.60;4.20;;;;;;;29.78;28.16;101859.88;2614776;31;20034;-49
2021/08/24 14:26:48;;;;;;;4.50;3.53;;;;;;;28.67;29.59;101855.63;2579044;36;2004774;-46
2021/08/24 14:29:21;;;;;;;4.10;3.70;;;;;;;27.22;31.32;101845.63;2615149;31;20595;-47
2021/08/24 14:31:53;;;;;;;4.88;3.67;;;;;;;27.16;33.29;101844.88;2614614;36;20026;-46
2021/08/24 14:34:37;;;;;;;5.45;3.67;;;;;;;28.82;31.40;101843.72;2614880;31;20542;-49
2021/08/24 14:37:06;;;;;;;5.28;3.90;;;;;;;29.80;27.47;101848.34;2614531;36;20161;-47
2021/08/24 14:39:38;;;;;;;5.20;3.67;;;;;;;31.14;26.62;101846.69;2615590;31;20030;-47
2021/08/24 14:42:26;;;;;;;5.88;4.32;;;;;;;29.64;27.64;101840.13;2614727;36;20027;-50
2021/08/24 14:44:55;;;;;;;5.13;4.25;;;;;;;31.49;26.83;101847.84;2579104;31;2004415;-46
2021/08/24 14:47:39;;;;;;;6.53;4.55;;;;;;;32.58;23.93;101849.06;2615465;31;20030;-48
2021/08/24 14:50:10;;;;;;;5.38;4.47;;;;;;;30.78;25.64;101839.31;2615144;31;20038;-46
2021/08/24 14:52:48;;;;;;;4.85;4.15;;;;;;;31.57;23.92;101840.44;2614521;36;20034;-50
2021/08/24 14:55:31;;;;;;;5.43;4.28;;;;;;;29.66;26.56;101842.69;2578171;36;2004397;-47
2021/08/24 14:58:14;;;;;;;4.22;3.80;;;;;;;29.25;27.22;101837.03;2614656;31;20053;-48
2021/08/24 15:01:09;;;;;;;5.85;4.25;;;;;;;27.46;31.67;101826.59;2580288;31;2004372;-49
2021/08/24 15:03:57;;;;;;;4.60;4.13;;;;;;;26.52;34.13;101832.38;2614550;36;20034;-48
2021/08/24 15:06:41;;;;;;;6.20;3.90;;;;;;;26.25;33.20;101833.81;2578768;31;2004707;-49
2021/08/24 15:09:31;;;;;;;6.78;4.15;;;;;;;26.05;32.79;101836.84;2614634;36;20034;-48
2021/08/24 15:12:02;;;;;;;6.43;4.00;;;;;;;26.80;32.78;101829.97;2578343;31;2004390;-45
2021/08/24 15:14:36;;;;;;;5.03;3.80;;;;;;;27.60;31.57;101834.13;2615369;31;20548;-47
2021/08/24 15:17:09;;;;;;;;;;;;;;;26.42;33.59;101837.81;2616009;31;20038;-49
2021/08/24 15:19:43;;;;;;;4.95;3.60;;;;;;;26.25;34.23;101834.66;2615869;31;19946;-46
2021/08/24 15:22:26;;;;;;;5.45;3.40;;;;;;;25.58;33.77;101828.97;2614751;31;20042;-47
2021/08/24 15:24:57;;;;;;;5.55;3.70;;;;;;;25.59;32.24;101829.84;2579056;31;2004689;-46
2021/08/24 15:27:27;;;;;;;5.45;3.50;;;;;;;25.70;33.51;101825.28;2614319;36;20069;-47
2021/08/24 15:30:15;;;;;;;6.05;3.50;;;;;;;25.60;34.86;101827.19;2613741;31;20034;-46
2021/08/24 15:32:48;;;;;;;5.75;3.70;;;;;;;25.46;35.09;101823.94;2578545;31;2004597;-46
2021/08/24 15:35:24;;;;;;;8.15;5.03;;;;;;;25.52;36.30;101825.63;2614214;36;20061;-44
2021/08/24 15:37:57;;;;;;;9.00;5.95;;;;;;;25.35;37.44;101829.41;2613720;31;20038;-46
2021/08/24 15:40:25;;;;;;;7.05;4.35;;;;;;;25.11;39.66;101833.31;2613409;31;20034;-45